sensor_id;sensor_type;location;lat;lon;timestamp;pressure;altitude;pressure_sealevel;temperature;humidity
74724;BME280;63238;55.800;37.622;2022-09-02T20:01:44;100043.78;;;11.25;58.03
74724;BME280;63238;55.800;37.622;2022-09-02T20:04:10;100041.03;;;10.81;59.72
74724;BME280;63238;55.800;37.622;2022-09-02T20:06:36;100029.34;;;10.45;60.10
74724;BME280;63238;55.800;37.622;2022-09-02T20:09:01;100049.88;;;10.28;60.99
74724;BME280;63238;55.800;37.622;2022-09-02T20:11:27;100049.66;;;10.09;61.60
74724;BME280;63238;55.800;37.622;2022-09-02T20:13:53;100033.13;;;9.74;62.74
74724;BME280;63238;55.800;37.622;2022-09-02T20:16:22;100046.69;;;9.80;63.32
74724;BME280;63238;55.800;37.622;2022-09-02T20:18:49;100056.63;;;9.81;64.26
74724;BME280;63238;55.800;37.622;2022-09-02T20:21:18;100041.41;;;9.74;63.53
74724;BME280;63238;55.800;37.622;2022-09-02T20:23:45;100062.72;;;9.78;64.43
74724;BME280;63238;55.800;37.622;2022-09-02T20:42:48;100051.97;;;9.36;64.99
74724;BME280;63238;55.800;37.622;2022-09-02T20:45:27;100079.06;;;9.59;65.69
74724;BME280;63238;55.800;37.622;2022-09-02T20:51:22;100074.63;;;9.64;64.56
74724;BME280;63238;55.800;37.622;2022-09-02T20:55:21;100086.53;;;9.74;64.96
74724;BME280;63238;55.800;37.622;2022-09-02T20:57:57;100078.78;;;9.66;65.26
74724;BME280;63238;55.800;37.622;2022-09-02T21:00:55;100087.59;;;9.68;65.71
74724;BME280;63238;55.800;37.622;2022-09-02T21:03:32;100095.09;;;9.63;65.73
74724;BME280;63238;55.800;37.622;2022-09-02T21:06:08;100100.63;;;9.63;65.54
74724;BME280;63238;55.800;37.622;2022-09-02T21:11:06;100082.91;;;9.48;66.16
74724;BME280;63238;55.800;37.622;2022-09-02T21:13:59;100100.91;;;9.51;65.96
74724;BME280;63238;55.800;37.622;2022-09-02T21:16:43;100095.66;;;9.54;66.35
74724;BME280;63238;55.800;37.622;2022-09-02T21:19:18;100094.53;;;9.50;66.57
74724;BME280;63238;55.800;37.622;2022-09-02T21:24:52;100103.66;;;9.41;66.48
74724;BME280;63238;55.800;37.622;2022-09-02T21:27:24;100076.00;;;9.20;66.86
74724;BME280;63238;55.800;37.622;2022-09-02T21:30:08;100102.00;;;9.29;67.08
74724;BME280;63238;55.800;37.622;2022-09-02T21:35:16;100105.03;;;9.28;68.52
74724;BME280;63238;55.800;37.622;2022-09-02T21:37:43;100098.94;;;9.21;67.63
74724;BME280;63238;55.800;37.622;2022-09-02T21:40:17;100102.53;;;9.21;66.59
74724;BME280;63238;55.800;37.622;2022-09-02T21:50:58;100111.09;;;9.10;67.68
74724;BME280;63238;55.800;37.622;2022-09-02T22:06:51;100107.50;;;9.04;66.84
74724;BME280;63238;55.800;37.622;2022-09-02T22:09:29;100115.19;;;9.02;65.91
74724;BME280;63238;55.800;37.622;2022-09-02T22:12:13;100120.75;;;9.07;66.13
74724;BME280;63238;55.800;37.622;2022-09-02T22:15:02;100106.38;;;9.00;67.33
74724;BME280;63238;55.800;37.622;2022-09-02T22:17:49;100120.16;;;8.95;67.18
74724;BME280;63238;55.800;37.622;2022-09-02T22:20:20;100119.34;;;8.94;66.53
74724;BME280;63238;55.800;37.622;2022-09-02T22:22:54;100134.00;;;9.05;66.34
74724;BME280;63238;55.800;37.622;2022-09-02T22:25:23;100114.38;;;9.01;66.21
74724;BME280;63238;55.800;37.622;2022-09-02T22:27:59;100125.72;;;9.10;66.29
74724;BME280;63238;55.800;37.622;2022-09-02T22:30:27;100128.75;;;9.08;66.44
74724;BME280;63238;55.800;37.622;2022-09-02T22:33:03;100136.19;;;8.98;66.43
74724;BME280;63238;55.800;37.622;2022-09-02T22:35:49;100137.56;;;8.90;67.34
74724;BME280;63238;55.800;37.622;2022-09-02T22:38:19;100110.13;;;8.73;66.73
74724;BME280;63238;55.800;37.622;2022-09-02T22:41:12;100142.53;;;8.93;66.58
74724;BME280;63238;55.800;37.622;2022-09-02T22:43:50;100141.16;;;8.91;66.90
74724;BME280;63238;55.800;37.622;2022-09-02T22:46:28;100152.22;;;8.96;67.15
74724;BME280;63238;55.800;37.622;2022-09-02T22:49:15;100145.56;;;8.92;67.10
74724;BME280;63238;55.800;37.622;2022-09-02T22:52:14;100154.97;;;8.96;67.09
74724;BME280;63238;55.800;37.622;2022-09-02T22:55:04;100151.34;;;8.85;66.63
74724;BME280;63238;55.800;37.622;2022-09-02T23:00:06;100134.47;;;8.81;67.31
74724;BME280;63238;55.800;37.622;2022-09-02T23:02:38;100153.56;;;8.88;66.45
74724;BME280;63238;55.800;37.622;2022-09-02T23:07:58;100153.81;;;8.81;68.14
74724;BME280;63238;55.800;37.622;2022-09-02T23:10:25;100156.28;;;8.83;67.23
74724;BME280;63238;55.800;37.622;2022-09-02T23:13:24;100156.84;;;8.80;66.48
74724;BME280;63238;55.800;37.622;2022-09-02T23:21:29;100170.81;;;8.58;67.47
74724;BME280;63238;55.800;37.622;2022-09-02T23:24:11;100164.16;;;8.44;68.06
74724;BME280;63238;55.800;37.622;2022-09-02T23:27:06;100180.72;;;8.49;68.15
74724;BME280;63238;55.800;37.622;2022-09-02T23:29:33;100160.44;;;8.33;68.53
74724;BME280;63238;55.800;37.622;2022-09-02T23:32:31;100175.72;;;8.41;68.10
74724;BME280;63238;55.800;37.622;2022-09-02T23:35:33;100167.44;;;8.41;67.93
74724;BME280;63238;55.800;37.622;2022-09-02T23:38:13;100163.47;;;8.31;68.20
74724;BME280;63238;55.800;37.622;2022-09-02T23:43:08;100174.50;;;8.31;68.83
74724;BME280;63238;55.800;37.622;2022-09-02T23:45:34;100167.81;;;8.22;68.79
74724;BME280;63238;55.800;37.622;2022-09-02T23:53:27;100182.88;;;8.42;68.76
74724;BME280;63238;55.800;37.622;2022-09-02T23:59:01;100179.25;;;8.36;68.55
